Time;durP1;ratioP1;P1;durP2;ratioP2;P2;SDS_P1;SDS_P2;PMS_P1;PMS_P2;Temp;Humidity;BMP_temperature;BMP_pressure;BME280_temperature;BME280_humidity;BME280_pressure;Samples;Min_cycle;Max_cycle;Signal;HPM_P1;HPM_P2
2024/02/27 00:00:23;;;;;;;1.70;1.60;;;10.80;99.90;;;;;;5067533;28;20459;-81
2024/02/27 00:02:52;;;;;;;1.50;1.50;;;10.80;99.90;;;;;;5064573;28;20486;-81
2024/02/27 00:05:21;;;;;;;1.50;1.50;;;10.80;99.90;;;;;;5065486;28;20961;-80
2024/02/27 00:07:49;;;;;;;1.60;1.50;;;10.80;99.90;;;;;;5065680;28;20450;-79
2024/02/27 00:10:18;;;;;;;1.70;1.60;;;10.80;99.90;;;;;;5065569;28;20458;-80
2024/02/27 00:12:46;;;;;;;1.43;1.43;;;10.80;99.90;;;;;;5066240;28;20458;-80
2024/02/27 00:15:14;;;;;;;1.50;1.50;;;10.80;99.90;;;;;;5069415;28;20443;-80
2024/02/27 00:17:43;;;;;;;1.30;1.30;;;10.80;99.90;;;;;;5069079;28;21038;-80
2024/02/27 00:20:12;;;;;;;1.23;1.23;;;10.80;99.90;;;;;;5065129;28;20482;-79
2024/02/27 00:22:41;;;;;;;1.40;1.40;;;10.80;99.90;;;;;;5064738;28;20466;-78
2024/02/27 00:25:10;;;;;;;1.40;1.40;;;10.80;99.90;;;;;;5064820;28;20493;-80
2024/02/27 00:27:38;;;;;;;1.47;1.40;;;10.80;99.90;;;;;;5065467;28;20542;-79
2024/02/27 00:30:08;;;;;;;1.57;1.57;;;10.80;99.90;;;;;;5065109;28;20447;-79
2024/02/27 00:32:36;;;;;;;1.43;1.33;;;10.70;99.90;;;;;;5063626;28;20501;-79
2024/02/27 00:35:05;;;;;;;1.40;1.30;;;10.70;99.90;;;;;;5066802;28;21004;-78
2024/02/27 00:37:35;;;;;;;1.40;1.40;;;10.70;99.90;;;;;;5065389;28;20538;-79
2024/02/27 00:40:05;;;;;;;1.30;1.30;;;10.70;99.90;;;;;;5066088;28;20442;-79
2024/02/27 00:42:33;;;;;;;1.70;1.60;;;10.70;99.90;;;;;;5069577;28;20485;-81
2024/02/27 00:45:01;;;;;;;1.20;1.20;;;10.80;99.90;;;;;;5067474;28;20474;-81
2024/02/27 00:47:30;;;;;;;1.33;1.33;;;10.70;99.90;;;;;;5069923;28;20443;-79
2024/02/27 00:49:58;;;;;;;1.30;1.30;;;10.70;99.90;;;;;;5069372;28;20450;-80
2024/02/27 00:52:26;;;;;;;1.30;1.30;;;10.70;99.90;;;;;;5066644;28;20444;-80
2024/02/27 00:54:56;;;;;;;1.20;1.20;;;10.70;99.90;;;;;;5069125;28;20527;-80
2024/02/27 00:57:24;;;;;;;1.37;1.37;;;10.70;99.90;;;;;;5066356;28;20460;-81
2024/02/27 00:59:52;;;;;;;1.50;1.40;;;10.70;99.90;;;;;;5069605;28;20447;-81
2024/02/27 01:02:20;;;;;;;1.30;1.30;;;10.60;99.90;;;;;;5065766;28;21086;-81
2024/02/27 01:04:48;;;;;;;1.40;1.40;;;10.60;99.90;;;;;;5067713;28;20486;-80
2024/02/27 01:07:17;;;;;;;1.40;1.40;;;10.70;99.90;;;;;;5064170;28;20893;-80
2024/02/27 01:09:45;;;;;;;1.30;1.30;;;10.60;99.90;;;;;;5067414;28;20879;-82
2024/02/27 01:12:15;;;;;;;1.30;1.30;;;10.60;99.90;;;;;;5067710;28;20536;-79
2024/02/27 01:14:44;;;;;;;1.30;1.30;;;10.60;99.90;;;;;;5067613;28;20469;-80
2024/02/27 01:17:12;;;;;;;1.40;1.40;;;10.60;99.90;;;;;;5066529;28;20456;-79
2024/02/27 01:19:40;;;;;;;1.60;1.50;;;10.60;99.90;;;;;;5067519;28;20468;-80
2024/02/27 01:22:08;;;;;;;2.20;2.00;;;10.60;99.90;;;;;;5067526;28;21248;-80
2024/02/27 01:24:38;;;;;;;1.30;1.30;;;10.60;99.90;;;;;;5069459;28;20558;-80
2024/02/27 01:27:06;;;;;;;1.50;1.43;;;10.50;99.90;;;;;;5066970;28;20808;-81
2024/02/27 01:29:35;;;;;;;1.50;1.40;;;10.60;99.90;;;;;;5066074;28;20455;-81
2024/02/27 01:32:08;;;;;;;1.50;1.40;;;10.60;99.90;;;;;;5065306;28;20470;-81
2024/02/27 01:34:36;;;;;;;1.43;1.40;;;10.60;99.90;;;;;;5062508;28;20480;-81
2024/02/27 01:37:05;;;;;;;1.60;1.50;;;10.50;99.90;;;;;;5065045;28;20496;-80
2024/02/27 01:39:33;;;;;;;1.60;1.50;;;10.50;99.90;;;;;;5063655;28;20488;-80
2024/02/27 01:42:02;;;;;;;1.50;1.40;;;10.50;99.90;;;;;;5066726;28;20528;-80
2024/02/27 01:44:30;;;;;;;1.60;1.50;;;10.50;99.90;;;;;;5068623;28;20880;-79
2024/02/27 01:47:01;;;;;;;1.40;1.40;;;10.40;99.90;;;;;;5068836;28;20439;-80
2024/02/27 01:49:31;;;;;;;1.60;1.50;;;10.40;99.90;;;;;;5071812;28;21005;-81
2024/02/27 01:52:00;;;;;;;1.23;1.23;;;10.50;99.90;;;;;;5071088;28;20999;-81
2024/02/27 01:54:28;;;;;;;1.50;1.40;;;10.40;99.90;;;;;;5071505;28;20463;-79
2024/02/27 01:56:58;;;;;;;1.50;1.40;;;10.40;99.90;;;;;;5064640;28;20458;-83
2024/02/27 01:59:26;;;;;;;1.40;1.40;;;10.40;99.90;;;;;;5071808;28;20458;-82
2024/02/27 02:01:55;;;;;;;1.53;1.43;;;10.40;99.90;;;;;;5071801;28;20451;-81
2024/02/27 02:04:26;;;;;;;1.43;1.43;;;10.40;99.90;;;;;;5072866;28;21858;-82
2024/02/27 02:06:55;;;;;;;1.40;1.40;;;10.30;99.90;;;;;;5068898;28;20450;-83
2024/02/27 02:09:23;;;;;;;1.60;1.50;;;10.30;99.90;;;;;;5071199;28;20481;-81
2024/02/27 02:11:51;;;;;;;1.50;1.50;;;10.30;99.90;;;;;;5070118;28;20461;-81
2024/02/27 02:14:20;;;;;;;1.40;1.40;;;10.30;99.90;;;;;;5067982;28;20474;-80
2024/02/27 02:16:49;;;;;;;1.57;1.50;;;10.30;99.90;;;;;;5068071;28;20943;-79
2024/02/27 02:19:17;;;;;;;1.60;1.60;;;10.30;99.90;;;;;;5068888;28;20487;-80
2024/02/27 02:21:50;;;;;;;1.67;1.57;;;10.30;99.90;;;;;;5065248;28;20988;-81
2024/02/27 02:24:20;;;;;;;1.70;1.70;;;10.30;99.90;;;;;;5068965;28;20457;-79
2024/02/27 02:26:48;;;;;;;3.67;3.37;;;10.30;99.90;;;;;;5069329;28;20478;-78
2024/02/27 02:29:16;;;;;;;4.10;3.00;;;10.20;99.90;;;;;;5068397;28;20454;-80
2024/02/27 02:31:44;;;;;;;2.40;2.30;;;10.20;99.90;;;;;;5069514;28;20453;-79
2024/02/27 02:34:12;;;;;;;2.70;2.50;;;10.20;99.90;;;;;;5069350;28;20504;-81
2024/02/27 02:36:42;;;;;;;1.80;1.70;;;10.20;99.90;;;;;;5066661;28;20459;-80
2024/02/27 02:39:12;;;;;;;2.00;1.90;;;10.10;99.90;;;;;;5069364;28;20448;-80
2024/02/27 02:41:40;;;;;;;2.10;2.00;;;10.10;99.90;;;;;;5070345;28;20470;-81
2024/02/27 02:44:08;;;;;;;2.27;2.10;;;10.10;99.90;;;;;;5068355;28;20478;-80
2024/02/27 02:46:38;;;;;;;2.10;2.00;;;10.10;99.90;;;;;;5070744;28;20458;-82
2024/02/27 02:49:06;;;;;;;2.20;2.10;;;10.10;99.90;;;;;;5070644;28;20454;-80
2024/02/27 02:51:35;;;;;;;2.40;2.30;;;10.10;99.90;;;;;;5068683;28;21084;-83
2024/02/27 02:54:03;;;;;;;2.43;2.33;;;10.10;99.90;;;;;;5067663;28;20493;-83
2024/02/27 02:56:33;;;;;;;2.47;2.20;;;10.10;99.90;;;;;;5071171;28;20462;-80
2024/02/27 02:59:01;;;;;;;2.37;2.27;;;10.10;99.90;;;;;;5069999;28;20524;-80
2024/02/27 03:01:32;;;;;;;2.40;2.30;;;10.10;99.90;;;;;;5066303;28;20453;-81
2024/02/27 03:04:00;;;;;;;2.77;2.57;;;10.10;99.90;;;;;;5064467;28;20490;-80
2024/02/27 03:06:29;;;;;;;2.33;2.23;;;10.00;99.90;;;;;;5063422;28;20546;-82
2024/02/27 03:08:57;;;;;;;3.17;2.97;;;10.00;99.90;;;;;;5069090;28;20516;-81
2024/02/27 03:11:26;;;;;;;2.50;2.40;;;10.00;99.90;;;;;;5066262;28;20447;-81
2024/02/27 03:13:55;;;;;;;3.47;3.17;;;10.00;99.90;;;;;;5071365;28;20498;-81
2024/02/27 03:16:23;;;;;;;3.30;3.00;;;10.00;99.90;;;;;;5070450;28;20501;-80
2024/02/27 03:18:52;;;;;;;3.43;3.23;;;10.00;99.90;;;;;;5068549;28;21043;-81
2024/02/27 03:21:20;;;;;;;3.33;3.03;;;10.00;99.90;;;;;;5068527;28;20443;-81
2024/02/27 03:23:48;;;;;;;4.00;3.30;;;10.00;99.90;;;;;;5069623;28;20467;-78
2024/02/27 03:26:17;;;;;;;3.33;3.03;;;10.00;99.90;;;;;;5069398;28;21013;-81
2024/02/27 03:28:45;;;;;;;3.47;3.17;;;10.00;99.90;;;;;;5069805;28;20451;-80
2024/02/27 03:31:14;;;;;;;3.67;3.40;;;9.90;99.90;;;;;;5065975;28;20456;-81
2024/02/27 03:33:42;;;;;;;3.73;3.50;;;10.00;99.90;;;;;;5069075;28;20471;-81
2024/02/27 03:36:11;;;;;;;3.90;3.70;;;10.00;99.90;;;;;;5070627;28;20439;-80
2024/02/27 03:38:40;;;;;;;3.70;3.50;;;10.00;99.90;;;;;;5069587;28;20451;-81
2024/02/27 03:41:12;;;;;;;3.80;3.50;;;9.90;99.90;;;;;;5069335;28;20476;-81
2024/02/27 03:43:41;;;;;;;4.30;3.80;;;9.90;99.90;;;;;;5071178;28;20485;-80
2024/02/27 03:46:10;;;;;;;4.03;3.70;;;10.00;99.90;;;;;;5069892;28;20461;-82
2024/02/27 03:48:39;;;;;;;3.43;3.20;;;9.90;99.90;;;;;;5063027;28;20451;-82
2024/02/27 03:51:08;;;;;;;4.10;3.70;;;9.90;99.90;;;;;;5062548;28;20563;-83
2024/02/27 03:53:36;;;;;;;3.90;3.67;;;9.90;99.90;;;;;;5065734;28;20485;-83
2024/02/27 03:56:05;;;;;;;4.23;3.93;;;9.90;99.90;;;;;;5071436;28;20485;-84
2024/02/27 03:58:36;;;;;;;3.90;3.70;;;9.90;99.90;;;;;;5075116;28;20461;-82
2024/02/27 04:01:04;;;;;;;4.77;4.23;;;9.90;99.90;;;;;;5074111;28;20451;-82
2024/02/27 04:03:33;;;;;;;4.67;4.27;;;9.80;99.90;;;;;;5071073;28;21070;-81
2024/02/27 04:06:02;;;;;;;4.60;4.30;;;9.80;99.90;;;;;;5071045;28;20448;-83
2024/02/27 04:08:31;;;;;;;5.43;4.90;;;9.80;99.90;;;;;;5071605;28;20476;-82
2024/02/27 04:10:59;;;;;;;4.90;4.40;;;9.70;99.90;;;;;;5070537;28;20483;-80
2024/02/27 04:13:27;;;;;;;5.57;4.70;;;9.80;99.90;;;;;;5072208;28;20572;-82
2024/02/27 04:15:55;;;;;;;5.00;4.60;;;9.80;99.90;;;;;;5070228;28;20451;-80
2024/02/27 04:18:24;;;;;;;5.17;4.67;;;9.70;99.90;;;;;;5068039;28;21149;-79
2024/02/27 04:20:52;;;;;;;5.50;5.07;;;9.70;99.90;;;;;;5069701;28;20464;-80
2024/02/27 04:23:22;;;;;;;5.07;4.67;;;9.70;99.90;;;;;;5066633;28;20489;-81
2024/02/27 04:25:50;;;;;;;6.10;5.50;;;9.70;99.90;;;;;;5068835;28;20538;-81
2024/02/27 04:28:18;;;;;;;5.50;5.00;;;9.70;99.90;;;;;;5070788;28;20982;-82
2024/02/27 04:30:46;;;;;;;5.50;4.97;;;9.70;99.90;;;;;;5068367;28;20477;-79
2024/02/27 04:33:14;;;;;;;5.50;5.00;;;9.70;99.90;;;;;;5066061;28;21024;-83
2024/02/27 04:35:45;;;;;;;5.77;5.00;;;9.70;99.90;;;;;;5071477;28;20537;-80
2024/02/27 04:38:13;;;;;;;6.87;5.40;;;9.70;99.90;;;;;;5071416;28;20442;-81
2024/02/27 04:40:43;;;;;;;6.00;5.40;;;9.70;99.90;;;;;;5073185;28;20449;-81
2024/02/27 04:43:11;;;;;;;5.83;5.43;;;9.60;99.90;;;;;;5070087;28;20470;-82
2024/02/27 04:45:39;;;;;;;5.17;4.77;;;9.70;99.90;;;;;;5068221;28;20450;-81
2024/02/27 04:48:09;;;;;;;5.60;5.10;;;9.70;99.90;;;;;;5068210;28;20534;-82
2024/02/27 04:50:38;;;;;;;5.80;5.30;;;9.60;99.90;;;;;;5069097;28;20476;-81
2024/02/27 04:53:06;;;;;;;5.90;5.40;;;9.60;99.90;;;;;;5067082;28;20560;-81
2024/02/27 04:55:34;;;;;;;6.80;6.20;;;9.60;99.90;;;;;;5068164;28;20532;-82
2024/02/27 04:58:04;;;;;;;6.20;5.57;;;9.60;99.90;;;;;;5070680;28;20208;-79
2024/02/27 05:00:32;;;;;;;7.23;5.43;;;9.60;99.90;;;;;;5063623;28;20470;-81
2024/02/27 05:03:01;;;;;;;7.43;5.73;;;9.60;99.90;;;;;;5065659;28;20485;-81
2024/02/27 05:05:29;;;;;;;7.07;6.50;;;9.70;99.90;;;;;;5067768;28;20475;-81
2024/02/27 05:07:57;;;;;;;6.07;5.57;;;9.70;99.90;;;;;;5066558;28;20457;-81
2024/02/27 05:10:25;;;;;;;6.50;5.90;;;9.60;99.90;;;;;;5068740;28;20448;-82
2024/02/27 05:12:53;;;;;;;7.30;6.47;;;9.60;99.90;;;;;;5068504;28;20447;-82
2024/02/27 05:15:23;;;;;;;6.33;5.50;;;9.60;99.90;;;;;;5068398;28;20455;-83
2024/02/27 05:17:51;;;;;;;7.10;6.40;;;9.60;99.90;;;;;;5065210;28;20455;-82
2024/02/27 05:20:19;;;;;;;6.27;5.67;;;9.60;99.90;;;;;;5067078;28;20432;-80
2024/02/27 05:22:47;;;;;;;8.27;5.70;;;9.60;99.90;;;;;;5066658;28;20543;-80
2024/02/27 05:25:16;;;;;;;6.90;6.20;;;9.50;99.90;;;;;;5069460;28;20474;-82
2024/02/27 05:27:44;;;;;;;10.27;6.40;;;9.50;99.90;;;;;;5068071;28;20524;-82
2024/02/27 05:30:13;;;;;;;9.50;6.40;;;9.50;99.90;;;;;;5068170;28;20485;-81
2024/02/27 05:32:43;;;;;;;7.20;6.50;;;9.60;99.90;;;;;;5057848;28;21010;-81
2024/02/27 05:35:11;;;;;;;7.87;6.93;;;9.50;99.90;;;;;;5066851;28;20982;-80
2024/02/27 05:37:40;;;;;;;9.00;6.77;;;9.60;99.90;;;;;;5066054;28;20447;-80
2024/02/27 05:40:12;;;;;;;7.60;6.80;;;9.50;99.90;;;;;;5064788;28;20536;-79
2024/02/27 05:42:40;;;;;;;7.53;6.83;;;9.60;99.90;;;;;;5066042;28;21011;-80
2024/02/27 05:45:09;;;;;;;11.87;8.50;;;9.50;99.90;;;;;;5066282;28;20849;-78
2024/02/27 05:47:37;;;;;;;8.27;7.30;;;9.60;99.90;;;;;;5065049;28;20458;-81
2024/02/27 05:50:08;;;;;;;7.43;6.73;;;9.50;99.90;;;;;;5065090;28;21258;-80
2024/02/27 05:52:37;;;;;;;7.83;7.07;;;9.50;99.90;;;;;;5065324;28;20452;-79
2024/02/27 05:55:06;;;;;;;10.00;8.83;;;9.50;99.90;;;;;;5064425;28;20473;-79
2024/02/27 05:57:34;;;;;;;8.30;7.50;;;9.50;99.90;;;;;;5064683;28;20857;-78
2024/02/27 06:00:03;;;;;;;9.80;7.10;;;9.50;99.90;;;;;;5065974;28;20856;-80
2024/02/27 06:02:31;;;;;;;8.43;6.60;;;9.50;99.90;;;;;;5060817;28;20447;-79
2024/02/27 06:04:59;;;;;;;9.23;8.20;;;9.50;99.90;;;;;;5062980;28;20483;-77
2024/02/27 06:07:29;;;;;;;10.03;7.70;;;9.60;99.90;;;;;;5063496;28;20548;-78
2024/02/27 06:09:57;;;;;;;9.40;7.73;;;9.50;99.90;;;;;;5059265;28;20466;-81
2024/02/27 06:12:25;;;;;;;8.73;7.60;;;9.50;99.90;;;;;;5062813;28;20453;-78
2024/02/27 06:14:53;;;;;;;8.03;7.23;;;9.50;99.90;;;;;;5061911;28;20565;-77
2024/02/27 06:17:22;;;;;;;10.03;8.03;;;9.50;99.90;;;;;;5061562;28;20822;-79
2024/02/27 06:19:55;;;;;;;11.53;7.97;;;9.50;99.90;;;;;;5063700;28;20484;-80
2024/02/27 06:22:23;;;;;;;9.57;8.50;;;9.50;99.90;;;;;;5057016;28;20508;-78
2024/02/27 06:24:53;;;;;;;10.90;7.83;;;9.40;99.90;;;;;;5061754;28;20470;-79
2024/02/27 06:27:21;;;;;;;9.07;7.03;;;9.40;99.90;;;;;;5065078;28;20443;-79
2024/02/27 06:29:50;;;;;;;9.60;8.30;;;9.40;99.90;;;;;;5068406;28;20995;-79
2024/02/27 06:32:18;;;;;;;9.27;8.30;;;9.40;99.90;;;;;;5067078;28;20464;-79
2024/02/27 06:34:47;;;;;;;10.30;8.43;;;9.40;99.90;;;;;;5069036;28;20469;-79
2024/02/27 06:37:16;;;;;;;10.03;8.00;;;9.40;99.90;;;;;;5068194;28;20447;-79
2024/02/27 06:39:44;;;;;;;10.53;8.50;;;9.40;99.90;;;;;;5068983;28;20561;-79
2024/02/27 06:42:13;;;;;;;11.60;7.93;;;9.40;99.90;;;;;;5068588;28;20450;-77
2024/02/27 06:44:43;;;;;;;14.40;8.83;;;9.40;99.90;;;;;;5070123;28;20994;-80
2024/02/27 06:47:11;;;;;;;10.73;9.20;;;9.40;99.90;;;;;;5062213;28;20439;-80
2024/02/27 06:49:39;;;;;;;10.17;8.50;;;9.40;99.90;;;;;;5067163;28;20513;-80
2024/02/27 06:52:07;;;;;;;11.70;9.70;;;9.40;99.90;;;;;;5065518;28;21058;-80
2024/02/27 06:54:35;;;;;;;10.23;8.27;;;9.40;99.90;;;;;;5069472;28;20837;-80
2024/02/27 06:57:04;;;;;;;10.27;8.20;;;9.40;99.90;;;;;;5067227;28;20494;-80
2024/02/27 06:59:33;;;;;;;10.60;9.60;;;9.40;99.90;;;;;;5069259;28;21082;-81
2024/02/27 07:02:02;;;;;;;12.40;9.67;;;9.40;99.90;;;;;;5065056;28;20451;-80
2024/02/27 07:04:30;;;;;;;12.20;9.20;;;9.40;99.90;;;;;;5066571;28;20528;-79
2024/02/27 07:06:58;;;;;;;11.37;9.97;;;9.40;99.90;;;;;;5067907;28;20540;-80
2024/02/27 07:09:28;;;;;;;14.00;9.60;;;9.40;99.90;;;;;;5068985;28;20464;-78
2024/02/27 07:11:56;;;;;;;10.27;9.33;;;9.40;99.90;;;;;;5064342;28;20584;-78
2024/02/27 07:14:25;;;;;;;14.30;9.93;;;9.30;99.90;;;;;;5068509;28;20475;-80
2024/02/27 07:16:55;;;;;;;12.63;9.30;;;9.40;99.90;;;;;;5067913;28;20581;-80
2024/02/27 07:19:23;;;;;;;12.47;9.20;;;9.40;99.90;;;;;;5066961;28;20459;-81
2024/02/27 07:21:52;;;;;;;15.10;10.10;;;9.40;99.90;;;;;;5068651;28;20457;-79
2024/02/27 07:24:20;;;;;;;12.80;9.83;;;9.40;99.90;;;;;;5063187;28;20479;-78
2024/02/27 07:26:48;;;;;;;11.37;10.27;;;9.40;99.90;;;;;;5066851;28;20552;-79
2024/02/27 07:29:16;;;;;;;14.87;10.63;;;9.40;99.90;;;;;;5067425;28;20959;-79
2024/02/27 07:31:45;;;;;;;10.30;8.77;;;9.40;99.90;;;;;;5066856;28;20546;-78
2024/02/27 07:34:16;;;;;;;10.70;9.20;;;9.40;99.90;;;;;;5064246;28;20477;-82
2024/02/27 07:36:45;;;;;;;14.37;10.50;;;9.50;99.90;;;;;;5068701;28;21014;-79
2024/02/27 07:39:15;;;;;;;12.13;10.30;;;9.50;99.90;;;;;;5067581;28;20459;-78
2024/02/27 07:41:43;;;;;;;12.23;10.40;;;9.50;99.90;;;;;;5067969;28;20504;-78
2024/02/27 07:44:11;;;;;;;12.87;10.03;;;9.60;99.90;;;;;;5068156;28;20483;-80
2024/02/27 07:46:39;;;;;;;12.17;10.90;;;9.60;99.90;;;;;;5067670;28;20522;-78
2024/02/27 07:49:09;;;;;;;15.77;11.50;;;9.50;99.90;;;;;;5056591;28;20476;-81
2024/02/27 07:51:39;;;;;;;13.47;11.00;;;9.50;99.90;;;;;;5063726;28;21056;-80
2024/02/27 07:54:07;;;;;;;13.10;10.43;;;9.60;99.90;;;;;;5063622;28;20547;-79
2024/02/27 07:56:35;;;;;;;14.40;11.98;;;9.60;99.90;;;;;;5062762;28;20447;-79
2024/02/27 07:59:03;;;;;;;13.53;11.80;;;9.60;99.90;;;;;;5061411;28;20606;-82
2024/02/27 08:01:33;;;;;;;12.27;10.47;;;9.70;99.90;;;;;;5062439;28;20458;-81
2024/02/27 08:04:01;;;;;;;13.07;11.20;;;9.80;99.90;;;;;;5063949;28;20493;-79
2024/02/27 08:06:31;;;;;;;15.17;10.30;;;9.70;99.90;;;;;;5064622;28;20542;-81
2024/02/27 08:09:01;;;;;;;11.27;10.10;;;9.90;99.90;;;;;;5065769;28;20794;-80
2024/02/27 08:11:29;;;;;;;14.53;11.60;;;9.90;99.90;;;;;;5064706;28;20832;-77
2024/02/27 08:13:57;;;;;;;13.53;9.83;;;9.90;99.90;;;;;;5067471;28;20482;-77
2024/02/27 08:16:25;;;;;;;13.70;11.43;;;9.90;99.90;;;;;;5063454;28;20458;-78
2024/02/27 08:18:54;;;;;;;14.50;12.47;;;9.90;99.90;;;;;;5064360;28;20462;-80
2024/02/27 08:21:22;;;;;;;15.40;11.43;;;10.00;99.90;;;;;;5063458;28;20470;-80
2024/02/27 08:23:50;;;;;;;14.57;11.20;;;9.90;99.90;;;;;;5064343;28;21051;-80
2024/02/27 08:26:19;;;;;;;13.37;11.90;;;9.90;99.90;;;;;;5064620;28;20483;-80
2024/02/27 08:28:48;;;;;;;12.30;10.40;;;9.90;99.90;;;;;;5063551;28;20527;-81
2024/02/27 08:31:16;;;;;;;16.20;12.97;;;9.90;99.90;;;;;;5062917;28;20448;-78
2024/02/27 08:33:44;;;;;;;15.50;11.70;;;10.00;99.90;;;;;;5063424;28;20468;-77
2024/02/27 08:36:12;;;;;;;16.40;11.80;;;10.10;99.90;;;;;;5061140;28;20496;-79
2024/02/27 08:38:44;;;;;;;14.13;11.00;;;10.20;99.90;;;;;;5063897;28;20455;-80
2024/02/27 08:41:12;;;;;;;14.87;13.33;;;10.40;99.90;;;;;;5059599;28;20467;-82
2024/02/27 08:43:42;;;;;;;14.93;11.60;;;10.50;99.90;;;;;;5064611;28;20510;-77
2024/02/27 08:46:17;;;;;;;15.63;11.50;;;10.50;99.90;;;;;;5063927;28;20470;-79
2024/02/27 08:48:45;;;;;;;14.60;11.40;;;10.50;99.90;;;;;;5065143;28;20531;-79
2024/02/27 08:51:14;;;;;;;12.20;10.50;;;10.50;99.90;;;;;;5063016;28;20510;-78
2024/02/27 08:53:42;;;;;;;12.43;10.70;;;10.50;99.90;;;;;;5064109;28;20474;-78
2024/02/27 08:56:10;;;;;;;14.37;11.53;;;10.50;99.90;;;;;;5064637;28;20533;-77
2024/02/27 08:58:39;;;;;;;12.87;11.47;;;10.50;99.90;;;;;;5063515;28;20461;-79
2024/02/27 09:01:10;;;;;;;12.47;11.27;;;10.60;99.90;;;;;;5065351;28;20458;-81
2024/02/27 09:03:40;;;;;;;13.23;11.23;;;10.60;99.90;;;;;;5063363;28;20488;-78
2024/02/27 09:06:11;;;;;;;13.10;11.60;;;10.60;99.90;;;;;;5060525;28;20632;-78
2024/02/27 09:08:40;;;;;;;13.80;11.00;;;10.60;99.90;;;;;;5073675;28;20461;-79
2024/02/27 09:11:08;;;;;;;11.40;10.30;;;10.60;99.90;;;;;;5063495;28;20477;-80
2024/02/27 09:13:36;;;;;;;13.00;11.23;;;10.60;99.90;;;;;;5061414;28;20462;-77
2024/02/27 09:16:05;;;;;;;12.53;10.73;;;10.60;99.90;;;;;;5061669;28;20491;-80
2024/02/27 09:18:37;;;;;;;14.90;11.40;;;10.60;99.90;;;;;;5065919;28;20459;-80
2024/02/27 09:21:06;;;;;;;15.17;11.60;;;10.70;99.90;;;;;;5054931;28;20459;-82
2024/02/27 09:23:34;;;;;;;13.60;10.47;;;10.70;99.90;;;;;;5064024;28;20465;-79
2024/02/27 09:26:03;;;;;;;15.20;11.80;;;10.60;99.90;;;;;;5064716;28;20483;-79
2024/02/27 09:28:31;;;;;;;13.00;11.47;;;10.50;99.90;;;;;;5062003;28;20471;-79
2024/02/27 09:31:02;;;;;;;13.93;11.23;;;10.50;99.90;;;;;;5064394;28;20458;-78
2024/02/27 09:33:31;;;;;;;12.20;10.70;;;10.50;99.90;;;;;;5065305;28;20479;-79
2024/02/27 09:36:01;;;;;;;12.40;10.90;;;10.50;99.90;;;;;;5062642;28;21003;-79
2024/02/27 09:38:29;;;;;;;13.33;10.50;;;10.50;99.90;;;;;;5062906;28;20449;-78
2024/02/27 09:41:01;;;;;;;16.00;13.57;;;10.50;99.90;;;;;;5065355;28;20459;-79
2024/02/27 09:43:30;;;;;;;15.57;10.97;;;10.50;99.90;;;;;;5064385;28;20589;-78
2024/02/27 09:45:59;;;;;;;17.90;13.30;;;10.50;99.90;;;;;;5064401;28;20448;-79
2024/02/27 09:48:30;;;;;;;12.83;11.30;;;10.50;99.90;;;;;;5061229;28;21039;-81
2024/02/27 09:51:04;;;;;;;16.00;13.43;;;10.50;99.90;;;;;;5061239;28;20542;-79
2024/02/27 09:53:32;;;;;;;13.70;11.50;;;10.60;99.90;;;;;;5064178;28;20542;-78
2024/02/27 09:56:00;;;;;;;14.23;12.50;;;10.60;99.90;;;;;;5062738;28;20518;-79
2024/02/27 09:58:29;;;;;;;12.60;10.97;;;10.50;99.90;;;;;;5061467;28;20517;-78
2024/02/27 10:01:03;;;;;;;15.20;11.47;;;10.50;99.90;;;;;;5065031;28;20492;-79
2024/02/27 10:03:35;;;;;;;12.93;11.30;;;10.60;99.90;;;;;;5066241;28;20469;-78
2024/02/27 10:06:07;;;;;;;13.87;11.70;;;10.60;99.90;;;;;;5062161;28;20453;-80
2024/02/27 10:08:37;;;;;;;17.50;11.67;;;10.60;99.90;;;;;;5067046;28;20450;-79
2024/02/27 10:11:07;;;;;;;11.70;10.60;;;10.60;99.90;;;;;;5067462;28;20982;-79
2024/02/27 10:13:35;;;;;;;11.70;10.60;;;10.60;99.90;;;;;;5063934;28;20951;-80
2024/02/27 10:16:03;;;;;;;13.23;11.03;;;10.60;99.90;;;;;;5065224;28;20451;-80
2024/02/27 10:18:32;;;;;;;12.80;11.37;;;10.70;99.90;;;;;;5065528;28;21115;-80
2024/02/27 10:21:00;;;;;;;14.53;11.57;;;10.60;99.90;;;;;;5064643;28;20460;-82
2024/02/27 10:23:31;;;;;;;13.37;11.47;;;10.60;99.90;;;;;;5065451;28;20485;-78
2024/02/27 10:26:08;;;;;;;13.17;11.17;;;10.60;99.90;;;;;;5066373;28;20460;-79
2024/02/27 10:28:37;;;;;;;12.37;11.17;;;10.60;99.90;;;;;;5066643;28;20478;-79
2024/02/27 10:31:06;;;;;;;13.17;10.97;;;10.60;99.90;;;;;;5063800;28;20452;-79
2024/02/27 10:33:34;;;;;;;13.40;10.53;;;10.60;99.90;;;;;;5064646;28;21032;-79
2024/02/27 10:36:03;;;;;;;13.50;11.60;;;10.50;99.90;;;;;;5066561;28;20491;-80
2024/02/27 10:38:33;;;;;;;12.63;11.33;;;10.60;99.90;;;;;;5062688;28;20464;-78
2024/02/27 10:41:01;;;;;;;13.73;11.40;;;10.60;99.90;;;;;;5067663;28;20516;-78
2024/02/27 10:43:33;;;;;;;16.47;11.47;;;10.60;99.90;;;;;;5067492;28;21166;-78
2024/02/27 10:46:02;;;;;;;14.13;12.67;;;10.60;99.90;;;;;;5065773;28;20477;-78
2024/02/27 10:48:30;;;;;;;14.63;12.50;;;10.70;99.90;;;;;;5064642;28;20467;-81
2024/02/27 10:51:13;;;;;;;14.53;12.47;;;10.60;99.90;;;;;;5066052;28;20542;-78
2024/02/27 10:53:43;;;;;;;15.13;12.50;;;10.60;99.90;;;;;;5064972;28;20472;-78
2024/02/27 10:56:12;;;;;;;13.90;12.40;;;10.70;99.90;;;;;;5063815;28;20526;-78
2024/02/27 10:58:41;;;;;;;16.73;12.33;;;10.70;99.90;;;;;;5064897;28;20471;-76
2024/02/27 11:01:10;;;;;;;16.00;12.90;;;10.70;99.90;;;;;;5066551;28;20435;-79
2024/02/27 11:03:41;;;;;;;14.50;13.10;;;10.70;99.90;;;;;;5065145;28;20477;-79
2024/02/27 11:06:14;;;;;;;14.23;11.97;;;10.80;99.90;;;;;;5060822;28;20504;-79
2024/02/27 11:08:47;;;;;;;16.50;13.43;;;10.70;99.90;;;;;;5063901;28;20482;-80
2024/02/27 11:11:16;;;;;;;16.10;12.33;;;10.80;99.90;;;;;;5064472;28;20461;-78
2024/02/27 11:13:48;;;;;;;14.17;12.67;;;10.90;99.90;;;;;;5067388;28;20471;-76
2024/02/27 11:16:20;;;;;;;13.37;11.90;;;10.90;99.90;;;;;;5067214;28;20948;-78
2024/02/27 11:18:54;;;;;;;12.50;10.60;;;11.00;99.90;;;;;;5065104;28;20462;-78
2024/02/27 11:21:23;;;;;;;15.00;13.47;;;11.00;99.90;;;;;;5066465;28;20943;-79
2024/02/27 11:23:53;;;;;;;13.90;12.00;;;11.10;99.90;;;;;;5066938;28;20575;-78
2024/02/27 11:26:22;;;;;;;14.37;12.93;;;11.20;99.90;;;;;;5066969;28;20465;-79
2024/02/27 11:28:51;;;;;;;15.67;14.07;;;11.40;99.90;;;;;;5067847;28;20481;-78
2024/02/27 11:31:21;;;;;;;16.13;14.10;;;11.60;99.90;;;;;;5067166;28;20453;-79
2024/02/27 11:33:51;;;;;;;17.87;14.97;;;11.90;99.90;;;;;;5064741;28;20468;-78
2024/02/27 11:36:21;;;;;;;17.53;13.50;;;12.10;99.90;;;;;;5066311;28;20459;-77
2024/02/27 11:38:52;;;;;;;18.53;14.63;;;12.10;99.90;;;;;;5059922;28;20548;-79
2024/02/27 11:41:21;;;;;;;14.90;12.23;;;12.30;99.90;;;;;;5062666;28;20999;-78
2024/02/27 11:43:51;;;;;;;15.77;12.77;;;12.50;99.90;;;;;;5066853;28;20473;-79
2024/02/27 11:46:35;;;;;;;14.27;12.73;;;12.60;99.90;;;;;;5065250;28;20463;-76
2024/02/27 11:49:04;;;;;;;14.73;13.17;;;12.70;99.90;;;;;;5063584;28;20476;-77
2024/02/27 11:51:36;;;;;;;14.13;12.63;;;12.70;99.90;;;;;;5066090;28;20461;-78
2024/02/27 11:54:09;;;;;;;18.63;14.20;;;12.60;99.90;;;;;;5063379;28;20477;-79
2024/02/27 11:56:41;;;;;;;16.63;13.70;;;12.50;99.90;;;;;;5065982;28;20489;-77
2024/02/27 11:59:14;;;;;;;17.97;14.10;;;12.30;99.90;;;;;;5064283;28;20459;-78
2024/02/27 12:01:42;;;;;;;18.60;14.93;;;12.20;99.90;;;;;;5067721;28;20457;-77
2024/02/27 12:04:13;;;;;;;16.20;13.90;;;12.00;99.90;;;;;;5064310;28;20466;-77
2024/02/27 12:06:50;;;;;;;18.70;14.93;;;11.90;99.90;;;;;;5067156;28;20451;-79
2024/02/27 12:09:25;;;;;;;18.00;15.47;;;11.80;99.90;;;;;;5058058;28;20482;-78
2024/02/27 12:11:54;;;;;;;18.40;14.10;;;11.70;99.90;;;;;;5064159;28;20451;-78
2024/02/27 12:14:23;;;;;;;17.23;14.97;;;11.70;99.90;;;;;;5059100;28;20531;-77
2024/02/27 12:16:52;;;;;;;17.73;14.10;;;11.70;99.90;;;;;;5063986;28;20461;-79
2024/02/27 12:19:20;;;;;;;18.10;15.20;;;11.70;99.90;;;;;;5066202;28;20494;-77
2024/02/27 12:21:49;;;;;;;20.00;15.97;;;11.70;99.90;;;;;;5062817;28;20500;-81
2024/02/27 12:24:18;;;;;;;16.87;14.87;;;11.60;99.90;;;;;;5062588;28;20475;-80
2024/02/27 12:26:49;;;;;;;17.73;15.53;;;11.60;99.90;;;;;;5055596;28;20461;-82
2024/02/27 12:29:18;;;;;;;20.27;15.70;;;11.50;99.90;;;;;;5062630;28;21027;-78
2024/02/27 12:31:46;;;;;;;23.00;15.93;;;11.50;99.90;;;;;;5064551;28;21402;-77
2024/02/27 12:34:14;;;;;;;16.50;14.60;;;11.50;99.90;;;;;;5060378;28;21048;-78
2024/02/27 12:36:43;;;;;;;18.70;16.00;;;11.50;99.90;;;;;;5061702;28;20456;-78
2024/02/27 12:39:12;;;;;;;16.10;14.50;;;11.40;99.90;;;;;;5063627;28;20464;-79
2024/02/27 12:41:41;;;;;;;16.70;14.30;;;11.40;99.90;;;;;;5065084;28;20495;-78
2024/02/27 12:44:11;;;;;;;14.70;13.17;;;11.50;99.90;;;;;;5062305;28;20471;-79
2024/02/27 12:46:39;;;;;;;16.53;14.83;;;11.50;99.90;;;;;;5064977;28;20465;-78
2024/02/27 12:49:09;;;;;;;19.63;16.03;;;11.50;99.90;;;;;;5064570;28;20485;-79